• Join FlightAware (Why Join?)
  • Login
  • US Flag 
05:44AM EST


 

Airport Tracker/Info


-or-


 

Live Flight TrackerFlight Track Log ✈ ASQ5745 ✈ 14-May-2013 ✈ KIAD - KALB

Flight Track Log - Related Links

Times and Time Zones

All times are in EDT time to prevent confusion due to time zone crossing. See the ASQ5745 flight status page for this flight to view local times or setup timezone preferences in your user account.

Time Position Orientation Groundspeed Altitude Reporting Facility
EDT Latitude Longitude Course Direction KTS MPH feet Rate Location/Type
10:17AM 38.9989 -77.4586 North 186 214 2,300  Level Washington Center
10:18AM 39.0667 -77.4500 North 262 302 5,200 2,820 Climbing Potomac TRACON
10:19AM 39.1865 -77.4500 North  Level FlightAware Approximate
10:20AM 39.2708 -77.4500 North  Level FlightAware Approximate
10:20AM 39.2014 -77.4450 North 264 304 11,000  Level Washington Center
10:21AM 39.3552 -77.4500 North  Level FlightAware Approximate
10:21AM 39.2656 -77.4789 338° Northwest 264 304 11,000  Level Washington Center
10:22AM 39.4396 -77.4500 North  Level FlightAware Approximate
10:22AM 39.2847 -77.5731 285° West 216 249 11,600  Level Washington Center
10:23AM 39.3664 -77.5619 North 221 254 14,700 2,580 Climbing Washington Center
10:25AM 39.5339 -77.4958 17° North 304 350 19,200 2,100 Climbing New York Center
10:26AM 39.6169 -77.4658 16° North 309 356 20,900 1,500 Climbing New York Center
10:27AM 39.7072 -77.4556 North 309 356 22,300 1,440 Climbing New York Center
10:28AM 39.7969 -77.4533 North 315 362 23,900 1,380 Climbing New York Center
10:29AM 39.8889 -77.4511 North 315 362 25,200 1,320 Climbing New York Center
10:30AM 39.9786 -77.4489 North 315 362 26,600 900 Climbing New York Center
10:31AM 40.0725 -77.4469 North 325 374 27,000 180 Climbing New York Center
10:32AM 40.1606 -77.4419 North 342 394 27,000  Level New York Center
10:33AM 40.2597 -77.3833 24° Northeast 358 412 27,000  Level New York Center
10:34AM 40.3633 -77.3197 25° Northeast 385 443 27,000  Level New York Center
10:35AM 40.4650 -77.2531 27° Northeast 397 457 27,000  Level New York Center
10:36AM 40.5708 -77.1864 26° Northeast 402 463 27,000  Level New York Center
10:37AM 40.6764 -77.1197 26° Northeast 414 476 27,000  Level New York Center
10:38AM 40.7803 -77.0497 27° Northeast 419 482 27,000  Level New York Center
10:39AM 40.8881 -76.9800 26° Northeast 424 488 27,000  Level New York Center
10:40AM 40.9958 -76.9128 25° Northeast 424 488 27,000  Level New York Center
10:41AM 41.1017 -76.8425 27° Northeast 424 488 27,000  Level New York Center
10:42AM 41.2094 -76.7722 26° Northeast 424 488 27,000  Level New York Center
10:43AM 41.3169 -76.7017 26° Northeast 424 488 27,000  Level New York Center
10:44AM 41.4356 -76.6208 27° Northeast 424 488 27,000  Level New York Center
10:45AM 41.5433 -76.5500 26° Northeast 424 488 27,000  Level New York Center
10:46AM 41.6528 -76.4789 26° Northeast 429 494 27,000 -420 Level New York Center
10:48AM 41.9178 -76.3019 26° Northeast 422 486 25,700 -720 Descending Boston Center
10:49AM 42.0264 -76.2303 26° Northeast 422 486 24,700 -900 Descending Boston Center
10:50AM 42.1331 -76.1583 27° Northeast 422 486 24,000 -360 Descending Boston Center
10:51AM 42.2042 -76.0194 55° Northeast 422 486 24,000  Level Boston Center
10:52AM 42.2572 -75.8597 66° East 437 503 24,000 -240 Level Boston Center
10:53AM 42.2903 -75.7242 72° East 450 518 23,600 -840 Descending Boston Center
10:54AM 42.3331 -75.5381 73° East 456 525 22,400 -1,140 Descending Boston Center
10:55AM 42.3728 -75.3797 71° East 456 525 21,400 -1,080 Descending Boston Center
10:56AM 42.4144 -75.2186 71° East 451 519 20,300 -1,500 Descending Boston Center
10:57AM 42.4514 -75.0600 72° East 445 512 18,400 -1,800 Descending Boston Center
10:58AM 42.4903 -74.9094 71° East 434 499 16,700 -1,920 Descending Boston Center
10:59AM 42.5250 -74.7503 73° East 418 481 14,600 -2,100 Descending Boston Center
11:00AM 42.5453 -74.6664 72° East 401 461 13,400 -2,100 Descending Boston Center
11:00AM 42.5611 -74.6050 71° East 406 467 12,500 -1,680 Descending Boston Center
11:01AM 42.5761 -74.4644 82° East 391 450 11,100 -1,080 Descending Boston Center
11:02AM 42.5731 -74.4025 94° East 388 447 11,000 -840 Descending Boston Center
11:02AM 42.5725 -74.3233 91° East 380 437 10,300 -1,140 Descending Boston Center
11:03AM 42.5689 -74.2753 96° East 325 374 9,900 -1,320 Descending Boston Center
11:03AM 42.5681 -74.2078 91° East 329 379 9,000 -2,100 Descending Boston Center
11:04AM 42.5653 -74.1061 92° East 282 325 6,700 -2,100 Descending Boston Center
11:05AM 42.5669 -74.0019 89° East 274 315 4,800 -1,860 Descending Boston Center
11:06AM 42.5928 -73.9208 67° East 263 303 3,000 -1,980 Descending Boston Center
11:07AM 42.6122 -73.8844 54° Northeast 253 291 2,100 -1,140 Descending Boston Center
11:07AM 42.6314 -73.8483 54° Northeast 263 303 1,900  Descending Boston Center
11:08AM 42.6483 -73.8203 51° Northeast 189 217 2,100 480 Climbing Boston Center